createdAt,value
2018-08-12T00:00:56.863Z,59.61
2018-08-12T00:02:07.089Z,59.89
2018-08-12T00:03:17.452Z,60.18
2018-08-12T00:04:28.596Z,59.48
2018-08-12T00:05:38.260Z,60.25
2018-08-12T00:06:48.163Z,60.38
2018-08-12T00:07:58.274Z,60.28
2018-08-12T00:09:08.401Z,60.57
2018-08-12T00:10:18.547Z,60.38
2018-08-12T00:11:28.715Z,60.35
2018-08-12T00:12:38.857Z,60.35
2018-08-12T00:13:48.995Z,60.35
2018-08-12T00:14:59.174Z,60.25
2018-08-12T00:16:09.073Z,60.63
2018-08-12T00:17:19.270Z,60.44
2018-08-12T00:18:29.613Z,60.63
2018-08-12T00:19:40.069Z,60.72
2018-08-12T00:20:50.193Z,61.02
2018-08-12T00:22:00.558Z,60.82
2018-08-12T00:23:10.696Z,60.92
2018-08-12T00:24:20.872Z,60.82
2018-08-12T00:25:31.099Z,61.11
2018-08-12T00:26:41.258Z,61.02
2018-08-12T00:27:51.393Z,61.11
2018-08-12T00:29:01.592Z,61.11
2018-08-12T00:30:12.781Z,60.92
2018-08-12T00:31:22.934Z,60.72
2018-08-12T00:32:33.227Z,61.49
2018-08-12T00:33:43.465Z,61.02
2018-08-12T00:34:53.652Z,61.49
2018-08-12T00:36:03.935Z,61.49
2018-08-12T00:37:14.067Z,61.69
2018-08-12T00:38:24.220Z,62.26
2018-08-12T00:39:34.362Z,61.88
2018-08-12T00:40:44.578Z,62.07
2018-08-12T00:41:54.709Z,62.65
2018-08-12T00:43:04.821Z,62.04
2018-08-12T00:44:14.749Z,62.42
2018-08-12T00:45:24.884Z,62.42
2018-08-12T00:46:35.267Z,62.33
2018-08-12T00:47:45.396Z,62.33
2018-08-12T00:48:55.551Z,63
2018-08-12T00:50:05.690Z,62.71
2018-08-12T00:51:15.652Z,63.09
2018-08-12T00:52:25.562Z,63.09
2018-08-12T00:53:35.870Z,62.71
2018-08-12T00:54:46.039Z,62.42
2018-08-12T00:55:56.208Z,62.42
2018-08-12T00:57:06.382Z,62.52
2018-08-12T00:58:16.609Z,62.42
2018-08-12T00:59:26.776Z,61.94
2018-08-12T01:00:36.897Z,61.66
2018-08-12T01:01:47.025Z,61.75
2018-08-12T01:02:56.890Z,61.66
2018-08-12T01:04:06.765Z,61.94
2018-08-12T01:05:16.927Z,61.94
2018-08-12T01:06:27.074Z,62.52
2018-08-12T01:07:37.225Z,62.62
2018-08-12T01:08:47.343Z,62.33
2018-08-12T01:09:57.502Z,62.81
2018-08-12T01:11:07.390Z,62.52
2018-08-12T01:12:17.255Z,62.33
2018-08-12T01:13:27.374Z,62.52
2018-08-12T01:14:37.482Z,62.71
2018-08-12T01:15:47.271Z,62.52
2018-08-12T01:16:57.421Z,62.52
2018-08-12T01:18:07.322Z,62.52
2018-08-12T01:19:17.226Z,62.52
2018-08-12T01:20:27.432Z,62.36
2018-08-12T01:21:37.657Z,62.52
2018-08-12T01:22:47.883Z,63.09
2018-08-12T01:23:57.490Z,62.71
2018-08-12T01:25:07.638Z,63.09
2018-08-12T01:26:17.810Z,63.29
2018-08-12T01:27:28.150Z,63.09
2018-08-12T01:28:38.291Z,63.09
2018-08-12T01:29:48.436Z,63.48
2018-08-12T01:30:58.680Z,62.81
2018-08-12T01:32:08.540Z,62.81
2018-08-12T01:33:18.432Z,63
2018-08-12T01:34:28.607Z,63.29
2018-08-12T01:35:38.759Z,63.38
2018-08-12T01:36:48.951Z,63.09
2018-08-12T01:37:59.117Z,63.38
2018-08-12T01:39:09.244Z,63.48
2018-08-12T01:40:19.399Z,64.05
2018-08-12T01:41:29.569Z,63.96
2018-08-12T01:42:39.730Z,63.96
2018-08-12T01:43:49.940Z,63.86
2018-08-12T01:45:00.380Z,63.86
2018-08-12T01:46:10.555Z,63.67
2018-08-12T01:47:20.744Z,64.05
2018-08-12T01:48:30.990Z,63.48
2018-08-12T01:49:41.174Z,63.38
2018-08-12T01:50:51.367Z,63.38
2018-08-12T01:52:01.173Z,63.09
2018-08-12T01:53:10.702Z,63.09
2018-08-12T01:54:20.837Z,62.33
2018-08-12T01:55:30.721Z,63.09
2018-08-12T01:56:40.850Z,62.62
2018-08-12T01:57:50.777Z,62.52
2018-08-12T01:59:00.707Z,62.42
2018-08-12T02:00:10.852Z,63
2018-08-12T02:01:21.042Z,63.09
2018-08-12T02:02:31.172Z,63.09
2018-08-12T02:03:41.290Z,63.48
2018-08-12T02:04:51.428Z,63.09
2018-08-12T02:06:01.549Z,62.71
2018-08-12T02:07:11.504Z,62.81
2018-08-12T02:08:21.657Z,62.33
2018-08-12T02:09:31.796Z,62.9
2018-08-12T02:10:41.937Z,62.52
2018-08-12T02:11:51.886Z,62.42
2018-08-12T02:13:01.497Z,61.94
2018-08-12T02:14:11.621Z,62.62
2018-08-12T02:15:21.766Z,61.94
2018-08-12T02:16:31.907Z,62.33
2018-08-12T02:17:42.083Z,61.94
2018-08-12T02:18:51.949Z,61.94
2018-08-12T02:20:02.105Z,62.04
2018-08-12T02:21:12.247Z,62.33
2018-08-12T02:22:22.448Z,62.39
2018-08-12T02:23:32.719Z,62.39
2018-08-12T02:24:42.983Z,62.2
2018-08-12T02:25:53.174Z,62.2
2018-08-12T02:27:03.409Z,62.87
2018-08-12T02:28:13.310Z,62.49
2018-08-12T02:29:23.346Z,62.39
2018-08-12T02:30:33.276Z,62.49
2018-08-12T02:31:43.452Z,62.96
2018-08-12T02:32:53.631Z,63.06
2018-08-12T02:34:03.822Z,62.87
2018-08-12T02:35:14.038Z,62.77
2018-08-12T02:36:24.162Z,62.77
2018-08-12T02:37:34.325Z,63.26
2018-08-12T02:38:44.484Z,63.42
2018-08-12T02:39:54.622Z,63.42
2018-08-12T02:41:04.792Z,63.32
2018-08-12T02:42:15.020Z,63.32
2018-08-12T02:43:25.142Z,63.89
2018-08-12T02:44:34.999Z,63.99
2018-08-12T02:45:45.147Z,63.8
2018-08-12T02:46:55.363Z,64.09
2018-08-12T02:48:05.505Z,64.09
2018-08-12T02:49:15.701Z,64.18
2018-08-12T02:50:25.840Z,63.89
2018-08-12T02:51:36.068Z,64.28
2018-08-12T02:52:45.977Z,63.8
2018-08-12T02:53:56.123Z,63.89
2018-08-12T02:55:06.262Z,63.99
2018-08-12T02:56:16.424Z,64.18
2018-08-12T02:57:26.619Z,64.47
2018-08-12T02:58:36.535Z,64.37
2018-08-12T02:59:46.669Z,64.25
2018-08-12T03:00:56.842Z,64.15
2018-08-12T03:02:06.723Z,64.82
2018-08-12T03:03:17.802Z,64.53
2018-08-12T03:04:27.744Z,64.63
2018-08-12T03:05:37.871Z,64.72
2018-08-12T03:06:48.043Z,64.82
2018-08-12T03:07:57.928Z,64.72
2018-08-12T03:09:08.074Z,64.92
2018-08-12T03:10:18.229Z,64.53
2018-08-12T03:11:28.398Z,65.11
2018-08-12T03:12:38.559Z,65.01
2018-08-12T03:13:48.709Z,65.11
2018-08-12T03:14:58.890Z,65.11
2018-08-12T03:16:09.258Z,65.01
2018-08-12T03:17:19.640Z,64.82
2018-08-12T03:18:29.848Z,64.92
2018-08-12T03:19:40.026Z,64.92
2018-08-12T03:20:49.888Z,65.01
2018-08-12T03:22:00.267Z,64.63
2018-08-12T03:23:10.421Z,64.82
2018-08-12T03:24:20.590Z,64.53
2018-08-12T03:25:30.474Z,64.72
2018-08-12T03:26:40.703Z,64.43
2018-08-12T03:27:50.831Z,64.82
2018-08-12T03:29:00.967Z,64.72
2018-08-12T03:30:11.479Z,64.82
2018-08-12T03:31:21.835Z,64.72
2018-08-12T03:32:33.037Z,64.63
2018-08-12T03:33:43.219Z,64.82
2018-08-12T03:34:53.394Z,64.53
2018-08-12T03:36:03.574Z,64.82
2018-08-12T03:37:14.774Z,64.92
2018-08-12T03:38:24.944Z,64.15
2018-08-12T03:39:35.124Z,64.05
2018-08-12T03:40:45.297Z,64.53
2018-08-12T03:41:55.491Z,64.25
2018-08-12T03:43:05.692Z,64.34
2018-08-12T03:44:16.040Z,64.53
2018-08-12T03:45:26.400Z,64.72
2018-08-12T03:46:36.310Z,64.63
2018-08-12T03:47:46.432Z,64.34
2018-08-12T03:48:56.618Z,63.96
2018-08-12T03:50:06.852Z,63.99
2018-08-12T03:51:16.970Z,64.37
2018-08-12T03:52:27.075Z,64.25
2018-08-12T03:53:37.230Z,64.25
2018-08-12T03:54:47.353Z,63.86
2018-08-12T03:55:57.454Z,63.99
2018-08-12T03:57:07.594Z,63.8
2018-08-12T03:58:17.728Z,63.89
2018-08-12T03:59:27.969Z,63.8
2018-08-12T04:00:38.107Z,63.8
2018-08-12T04:01:48.249Z,63.8
2018-08-12T04:02:58.127Z,63.8
2018-08-12T04:04:08.344Z,63.89
2018-08-12T04:05:18.487Z,63.8
2018-08-12T04:06:28.619Z,63.76
2018-08-12T04:07:38.727Z,63.7
2018-08-12T04:08:48.873Z,63.76
2018-08-12T04:09:59.039Z,63.7
2018-08-12T04:11:09.466Z,63.8
2018-08-12T04:12:19.581Z,63.89
2018-08-12T04:13:29.445Z,63.89
2018-08-12T04:14:39.623Z,63.89
2018-08-12T04:15:49.493Z,63.7
2018-08-12T04:16:59.615Z,63.22
2018-08-12T04:18:09.725Z,63.42
2018-08-12T04:19:19.873Z,63.13
2018-08-12T04:20:30.075Z,63.42
2018-08-12T04:21:40.214Z,63.13
2018-08-12T04:22:50.394Z,62.77
2018-08-12T04:24:00.580Z,62.39
2018-08-12T04:25:10.721Z,62.46
2018-08-12T04:26:20.853Z,62.46
2018-08-12T04:27:30.994Z,62.36
2018-08-12T04:28:41.096Z,62.46
2018-08-12T04:29:50.715Z,62.36
2018-08-12T04:31:00.489Z,61.88
2018-08-12T04:32:10.694Z,62.26
2018-08-12T04:33:20.976Z,62.46
2018-08-12T04:34:31.121Z,62.07
2018-08-12T04:35:41.251Z,62.26
2018-08-12T04:36:51.372Z,62.26
2018-08-12T04:38:01.539Z,62.46
2018-08-12T04:39:12.176Z,62.46
2018-08-12T04:40:22.347Z,62.46
2018-08-12T04:41:33.477Z,62.36
2018-08-12T04:42:43.636Z,62.55
2018-08-12T04:43:53.766Z,62.17
2018-08-12T04:45:04.116Z,62.46
2018-08-12T04:46:14.604Z,61.98
2018-08-12T04:47:24.733Z,62.26
2018-08-12T04:48:34.908Z,61.79
2018-08-12T04:49:45.111Z,61.69
2018-08-12T04:50:55.233Z,61.79
2018-08-12T04:52:05.353Z,61.88
2018-08-12T04:53:15.549Z,61.79
2018-08-12T04:54:25.672Z,61.69
2018-08-12T04:55:35.790Z,61.5
2018-08-12T04:56:45.916Z,61.4
2018-08-12T04:57:56.112Z,61.31
2018-08-12T04:59:06.292Z,61.69
2018-08-12T05:00:16.148Z,61.5
2018-08-12T05:01:26.316Z,61.69
2018-08-12T05:02:36.554Z,61.69
2018-08-12T05:03:46.790Z,61.21
2018-08-12T05:04:57.049Z,61.4
2018-08-12T05:06:06.923Z,61.4
2018-08-12T05:07:17.094Z,61.5
2018-08-12T05:08:27.260Z,61.5
2018-08-12T05:09:37.577Z,61.4
2018-08-12T05:10:47.449Z,61.5
2018-08-12T05:11:57.886Z,61.5
2018-08-12T05:13:08.109Z,61.5
2018-08-12T05:14:18.012Z,61.6
2018-08-12T05:15:27.865Z,61.6
2018-08-12T05:16:38.015Z,61.4
2018-08-12T05:17:48.148Z,60.83
2018-08-12T05:18:58.265Z,60.93
2018-08-12T05:20:08.587Z,60.96
2018-08-12T05:21:18.484Z,60.76
2018-08-12T05:22:28.795Z,60.67
2018-08-12T05:23:38.925Z,60.09
2018-08-12T05:24:49.075Z,60.28
2018-08-12T05:25:59.206Z,60
2018-08-12T05:27:09.082Z,60.09
2018-08-12T05:28:19.210Z,60.09
2018-08-12T05:29:29.339Z,60.12
2018-08-12T05:30:39.583Z,60.31
2018-08-12T05:31:49.774Z,59.55
2018-08-12T05:32:59.990Z,59.45
2018-08-12T05:34:10.133Z,59.36
2018-08-12T05:35:20.307Z,59.33
2018-08-12T05:36:30.490Z,59.13
2018-08-12T05:37:40.849Z,59.61
2018-08-12T05:38:50.703Z,59.71
2018-08-12T05:40:00.833Z,59.61
2018-08-12T05:41:10.979Z,59.33
2018-08-12T05:42:21.113Z,59.23
2018-08-12T05:43:30.974Z,59.42
2018-08-12T05:44:40.471Z,59.33
2018-08-12T05:45:50.618Z,59.33
2018-08-12T05:47:01.797Z,59.04
2018-08-12T05:48:11.906Z,59.06
2018-08-12T05:49:22.141Z,59.26
2018-08-12T05:50:32.284Z,59.26
2018-08-12T05:51:42.543Z,59.26
2018-08-12T05:52:52.677Z,59.26
2018-08-12T05:54:02.862Z,59.26
2018-08-12T05:55:13.214Z,58.97
2018-08-12T05:56:23.467Z,59.16
2018-08-12T05:57:33.717Z,59.16
2018-08-12T05:58:44.101Z,58.91
2018-08-12T05:59:54.239Z,58.91
2018-08-12T06:01:04.379Z,58.42
2018-08-12T06:02:14.502Z,58.23
2018-08-12T06:03:24.383Z,57.95
2018-08-12T06:04:34.531Z,58.14
2018-08-12T06:05:44.710Z,57.65
2018-08-12T06:06:54.883Z,57.85
2018-08-12T06:08:04.777Z,57.3
2018-08-12T06:09:14.951Z,57.21
2018-08-12T06:10:25.131Z,56.92
2018-08-12T06:11:35.386Z,56.82
2018-08-12T06:12:45.565Z,56.73
2018-08-12T06:13:55.856Z,56.63
2018-08-12T06:15:06.092Z,56.82
2018-08-12T06:16:16.214Z,56.73
2018-08-12T06:17:26.555Z,56.53
2018-08-12T06:18:36.952Z,56.44
2018-08-12T06:19:47.134Z,56.34
2018-08-12T06:20:57.274Z,56.24
2018-08-12T06:22:07.482Z,56.05
2018-08-12T06:23:17.617Z,56.34
2018-08-12T06:24:27.241Z,56.34
2018-08-12T06:25:37.442Z,56.34
2018-08-12T06:26:47.835Z,56.15
2018-08-12T06:27:57.967Z,56.05
2018-08-12T06:29:08.182Z,56.44
2018-08-12T06:30:18.404Z,56.53
2018-08-12T06:31:28.655Z,56.34
2018-08-12T06:32:38.779Z,56.24
2018-08-12T06:33:48.946Z,55.86
2018-08-12T06:35:00.044Z,55.96
2018-08-12T06:36:09.960Z,56.24
2018-08-12T06:37:20.127Z,55.96
2018-08-12T06:38:30.284Z,56.15
2018-08-12T06:39:40.628Z,55.6
2018-08-12T06:40:51.065Z,55.79
2018-08-12T06:42:00.937Z,55.41
2018-08-12T06:43:10.867Z,55.51
2018-08-12T06:44:21.056Z,55.41
2018-08-12T06:45:31.228Z,55.24
2018-08-12T06:46:41.473Z,55.05
2018-08-12T06:47:51.627Z,55.15
2018-08-12T06:49:01.785Z,54.67
2018-08-12T06:50:11.928Z,54.96
2018-08-12T06:51:22.055Z,54.57
2018-08-12T06:52:32.206Z,54.57
2018-08-12T06:53:42.368Z,54.79
2018-08-12T06:54:52.591Z,54.69
2018-08-12T06:56:03.710Z,54.31
2018-08-12T06:57:14.120Z,54.31
2018-08-12T06:58:24.254Z,54.12
2018-08-12T06:59:34.485Z,53.64
2018-08-12T07:00:44.675Z,53.74
2018-08-12T07:01:54.876Z,53.45
2018-08-12T07:03:05.025Z,53.64
2018-08-12T07:04:15.181Z,52.48
2018-08-12T07:05:25.369Z,52.77
2018-08-12T07:06:35.518Z,52.77
2018-08-12T07:07:46.632Z,52.87
2018-08-12T07:08:56.835Z,52.42
2018-08-12T07:10:06.955Z,52.32
2018-08-12T07:11:17.173Z,52.51
2018-08-12T07:12:27.413Z,52.42
2018-08-12T07:13:37.791Z,52.42
2018-08-12T07:14:47.958Z,51.55
2018-08-12T07:15:58.076Z,51.67
2018-08-12T07:17:08.256Z,51.57
2018-08-12T07:18:18.516Z,51.38
2018-08-12T07:19:28.719Z,51.57
2018-08-12T07:20:38.884Z,51.57
2018-08-12T07:21:49.126Z,50.99
2018-08-12T07:22:59.018Z,51.19
2018-08-12T07:24:09.179Z,51.19
2018-08-12T07:25:19.316Z,50.25
2018-08-12T07:26:29.567Z,50.35
2018-08-12T07:27:39.867Z,49.48
2018-08-12T07:28:50.031Z,49.48
2018-08-12T07:30:00.274Z,49.48
2018-08-12T07:31:10.516Z,49.38
2018-08-12T07:32:20.318Z,49.19
2018-08-12T07:33:30.046Z,48.71
2018-08-12T07:34:39.920Z,48.61
2018-08-12T07:35:50.048Z,49.1
2018-08-12T07:37:00.204Z,48.83
2018-08-12T07:38:10.358Z,48.64
2018-08-12T07:39:20.246Z,48.44
2018-08-12T07:40:29.983Z,48.25
2018-08-12T07:41:39.859Z,47.77
2018-08-12T07:42:50.012Z,47.77
2018-08-12T07:44:01.172Z,47.97
2018-08-12T07:45:11.307Z,47.51
2018-08-12T07:46:21.462Z,47.22
2018-08-12T07:47:31.654Z,47.03
2018-08-12T07:48:41.686Z,46.83
2018-08-12T07:49:51.901Z,47.22
2018-08-12T07:51:02.022Z,46.45
2018-08-12T07:52:12.160Z,46.55
2018-08-12T07:53:22.300Z,46.45
2018-08-12T07:54:32.471Z,46.15
2018-08-12T07:55:42.412Z,46.47
2018-08-12T07:56:52.804Z,45.99
2018-08-12T07:58:03.037Z,45.79
2018-08-12T07:59:12.921Z,45.6
2018-08-12T08:00:23.112Z,45.03
2018-08-12T08:01:33.257Z,44.93
2018-08-12T08:02:43.496Z,45.12
2018-08-12T08:03:53.695Z,45.03
2018-08-12T08:05:03.961Z,45.03
2018-08-12T08:06:14.350Z,44.73
2018-08-12T08:07:24.499Z,44.93
2018-08-12T08:08:34.639Z,44.85
2018-08-12T08:09:44.964Z,44.66
2018-08-12T08:10:55.103Z,44.76
2018-08-12T08:12:04.909Z,43.7
2018-08-12T08:13:15.055Z,44.01
2018-08-12T08:14:25.289Z,43.81
2018-08-12T08:15:35.453Z,43.52
2018-08-12T08:16:45.622Z,43.45
2018-08-12T08:17:55.790Z,43.06
2018-08-12T08:19:05.992Z,42.29
2018-08-12T08:20:17.575Z,42.29
2018-08-12T08:21:27.578Z,41.73
2018-08-12T08:22:37.748Z,41.63
2018-08-12T08:23:47.892Z,40.96
2018-08-12T08:24:58.037Z,40.78
2018-08-12T08:26:08.177Z,41.17
2018-08-12T08:27:18.368Z,40.11
2018-08-12T08:28:28.545Z,39.55
2018-08-12T08:29:38.721Z,39.64
2018-08-12T08:30:48.896Z,39.64
2018-08-12T08:31:59.595Z,38.97
2018-08-12T08:33:10.452Z,38.13
2018-08-12T08:34:20.340Z,37.67
2018-08-12T08:35:30.467Z,37.3
2018-08-12T08:36:40.619Z,37.73
2018-08-12T08:37:50.789Z,36.77
2018-08-12T08:39:01.037Z,36.58
2018-08-12T08:40:11.223Z,35.92
2018-08-12T08:41:21.403Z,34.87
2018-08-12T08:42:31.633Z,34.48
2018-08-12T08:43:41.515Z,34.38
2018-08-12T08:44:51.686Z,34.38
2018-08-12T08:46:01.849Z,33.25
2018-08-12T08:47:12.022Z,32.68
2018-08-12T08:48:22.216Z,32.49
2018-08-12T08:49:32.540Z,32.7
2018-08-12T08:50:42.826Z,32.6
2018-08-12T08:51:53.473Z,31.82
2018-08-12T08:53:03.684Z,31.92
2018-08-12T08:54:13.899Z,31.73
2018-08-12T08:55:24.057Z,30.75
2018-08-12T08:56:34.247Z,30.57
2018-08-12T08:57:44.432Z,29.99
2018-08-12T08:58:54.616Z,29.99
2018-08-12T09:00:04.552Z,29.52
2018-08-12T09:01:14.796Z,29.32
2018-08-12T09:02:25.214Z,28.83
2018-08-12T09:03:35.454Z,28.85
2018-08-12T09:04:45.624Z,28.75
2018-08-12T09:05:55.875Z,28.18
2018-08-12T09:07:06.060Z,28.38
2018-08-12T09:08:16.462Z,28.26
2018-08-12T09:09:27.429Z,28.34
2018-08-12T09:10:37.340Z,28.43
2018-08-12T09:11:47.618Z,28.23
2018-08-12T09:12:57.887Z,28.42
2018-08-12T09:14:08.069Z,28.33
2018-08-12T09:15:17.974Z,28.43
2018-08-12T09:16:28.132Z,28.25
2018-08-12T09:17:38.321Z,28.07
2018-08-12T09:18:48.483Z,28.07
2018-08-12T09:19:58.641Z,28.07
2018-08-12T09:21:08.602Z,27.78
2018-08-12T09:22:18.757Z,27.08
2018-08-12T09:23:28.689Z,26.69
2018-08-12T09:24:38.916Z,27
2018-08-12T09:25:49.103Z,26.61
2018-08-12T09:26:59.411Z,26.52
2018-08-12T09:28:09.667Z,26.72
2018-08-12T09:29:19.930Z,26.72
2018-08-12T09:30:30.180Z,26.63
2018-08-12T09:31:40.107Z,25.95
2018-08-12T09:32:50.309Z,26.04
2018-08-12T09:34:00.495Z,25.95
2018-08-12T09:35:10.669Z,26.04
2018-08-12T09:36:20.856Z,25.76
2018-08-12T09:37:31.149Z,25.76
2018-08-12T09:38:41.301Z,25.76
2018-08-12T09:39:51.249Z,24.79
2018-08-12T09:41:01.739Z,25.08
2018-08-12T09:42:12.920Z,24.99
2018-08-12T09:43:23.201Z,24.89
2018-08-12T09:44:33.417Z,24.49
2018-08-12T09:45:43.621Z,25.07
2018-08-12T09:46:53.850Z,25.18
2018-08-12T09:48:04.109Z,25.27
2018-08-12T09:49:14.384Z,25.29
2018-08-12T09:50:24.221Z,25.01
2018-08-12T09:51:34.539Z,24.81
2018-08-12T09:52:45.577Z,24.24
2018-08-12T09:53:55.828Z,24.33
2018-08-12T09:55:06.004Z,23.94
2018-08-12T09:56:16.217Z,24.14
2018-08-12T09:57:26.508Z,24.04
2018-08-12T09:58:36.843Z,22.87
2018-08-12T09:59:47.125Z,22.77
2018-08-12T10:00:57.364Z,23.07
2018-08-12T10:02:07.812Z,22.87
2018-08-12T10:03:18.012Z,23.08
2018-08-12T10:04:28.212Z,23.07
2018-08-12T10:05:38.380Z,22.98
2018-08-12T10:06:48.595Z,23.19
2018-08-12T10:07:58.788Z,22.7
2018-08-12T10:09:08.741Z,22.5
2018-08-12T10:10:18.928Z,22.88
2018-08-12T10:11:29.150Z,22.58
2018-08-12T10:12:39.343Z,22.67
2018-08-12T10:13:49.285Z,22.77
2018-08-12T10:14:59.597Z,21.8
2018-08-12T10:16:09.862Z,21.32
2018-08-12T10:17:20.239Z,21.72
2018-08-12T10:18:30.413Z,21.72
2018-08-12T10:19:40.599Z,21.63
2018-08-12T10:20:50.807Z,21.35
2018-08-12T10:22:01.047Z,21.35
2018-08-12T10:23:11.971Z,20.77
2018-08-12T10:24:22.149Z,20.19
2018-08-12T10:25:32.341Z,20.29
2018-08-12T10:26:42.546Z,20.01
2018-08-12T10:27:52.781Z,20.01
2018-08-12T10:29:02.960Z,20
2018-08-12T10:30:13.317Z,19.7
2018-08-12T10:31:23.669Z,19.99
2018-08-12T10:32:33.882Z,19.88
2018-08-12T10:33:44.116Z,19.87
2018-08-12T10:34:54.367Z,20.15
2018-08-12T10:36:04.599Z,20.64
2018-08-12T10:37:14.862Z,20.64
2018-08-12T10:38:26.051Z,20.25
2018-08-12T10:39:36.251Z,20.74
2018-08-12T10:40:46.511Z,20.84
2018-08-12T10:41:57.691Z,20.65
2018-08-12T10:43:07.905Z,20.65
2018-08-12T10:44:18.232Z,20.17
2018-08-12T10:45:28.463Z,19.87
2018-08-12T10:46:38.710Z,19.67
2018-08-12T10:47:48.805Z,19.77
2018-08-12T10:48:58.750Z,20.17
2018-08-12T10:50:08.969Z,20.07
2018-08-12T10:51:18.819Z,19.67
2018-08-12T10:52:28.892Z,19.68
2018-08-12T10:53:39.055Z,19.49
2018-08-12T10:54:49.269Z,19.1
2018-08-12T10:55:59.517Z,19.01
2018-08-12T10:57:09.698Z,19.4
2018-08-12T10:58:19.912Z,19.39
2018-08-12T10:59:30.366Z,19.2
2018-08-12T11:00:40.682Z,19.48
2018-08-12T11:01:50.919Z,19.37
2018-08-12T11:03:00.857Z,18.97
2018-08-12T11:04:11.028Z,19.46
2018-08-12T11:05:21.201Z,20.03
2018-08-12T11:06:31.440Z,19.74
2018-08-12T11:07:43.667Z,20.32
2018-08-12T11:08:56.585Z,19.94
2018-08-12T11:10:08.160Z,19.56
2018-08-12T11:12:31.872Z,18.89
2018-08-12T11:13:42.233Z,19.28
2018-08-12T11:14:52.709Z,18.79
2018-08-12T11:16:03.046Z,18.6
2018-08-12T11:17:13.253Z,18.79
2018-08-12T11:18:23.466Z,18.7
2018-08-12T11:19:33.716Z,18.88
2018-08-12T11:20:43.911Z,19.08
2018-08-12T11:21:54.125Z,18.5
2018-08-12T11:23:04.315Z,18.11
2018-08-12T11:24:14.549Z,18.21
2018-08-12T11:25:24.779Z,17.63
2018-08-12T11:26:35.039Z,17.92
2018-08-12T11:27:45.216Z,17.92
2018-08-12T11:28:55.141Z,17.92
2018-08-12T11:30:05.532Z,17.92
2018-08-12T11:31:15.783Z,18.02
2018-08-12T11:32:25.813Z,18.21
2018-08-12T11:33:36.044Z,18.42
2018-08-12T11:34:46.483Z,18.23
2018-08-12T11:35:56.671Z,18.13
2018-08-12T11:37:07.902Z,18.15
2018-08-12T11:38:18.126Z,18.04
2018-08-12T11:39:28.426Z,18.05
2018-08-12T11:40:41.000Z,16.68
2018-08-12T11:41:51.328Z,16.68
2018-08-12T11:43:01.519Z,17.46
2018-08-12T11:44:12.686Z,17.36
2018-08-12T11:45:22.947Z,17.36
2018-08-12T11:46:33.118Z,17.65
2018-08-12T11:47:44.337Z,17.25
2018-08-12T11:48:54.542Z,17.25
2018-08-12T11:50:04.739Z,17.44
2018-08-12T11:51:15.155Z,17.24
2018-08-12T11:52:25.335Z,18.01
2018-08-12T11:53:35.547Z,18.49
2018-08-12T11:54:47.049Z,18.49
2018-08-12T11:55:57.327Z,18.49
2018-08-12T11:57:07.711Z,18.77
2018-08-12T11:58:17.936Z,18.48
2018-08-12T11:59:28.113Z,18.87
2018-08-12T12:00:38.362Z,18.77
2018-08-12T12:01:48.612Z,18.38
2018-08-12T12:02:58.863Z,18.87
2018-08-12T12:04:09.318Z,18.58
2018-08-12T12:05:19.842Z,18.68
2018-08-12T12:06:30.295Z,18.39
2018-08-12T12:07:40.565Z,18.6
2018-08-12T12:08:50.787Z,18.41
2018-08-12T12:10:01.046Z,18.21
2018-08-12T12:11:11.317Z,18.31
2018-08-12T12:12:21.367Z,18.21
2018-08-12T12:13:31.660Z,18.12
2018-08-12T12:14:42.014Z,18.21
2018-08-12T12:15:52.227Z,18.21
2018-08-12T12:17:02.405Z,17.82
2018-08-12T12:18:12.628Z,18.02
2018-08-12T12:19:22.737Z,18.32
2018-08-12T12:20:33.086Z,18.02
2018-08-12T12:21:43.543Z,17.72
2018-08-12T12:22:53.904Z,18.71
2018-08-12T12:24:04.142Z,18.52
2018-08-12T12:25:14.422Z,17.92
2018-08-12T12:26:24.438Z,18.02
2018-08-12T12:27:34.636Z,17.24
2018-08-12T12:28:44.851Z,16.85
2018-08-12T12:29:54.854Z,17.14
2018-08-12T12:31:05.057Z,17.54
2018-08-12T12:32:15.274Z,17.44
2018-08-12T12:33:25.543Z,17.24
2018-08-12T12:34:35.788Z,17.63
2018-08-12T12:35:46.032Z,17.82
2018-08-12T12:36:56.441Z,17.9
2018-08-12T12:38:07.706Z,17.8
2018-08-12T12:39:18.891Z,18.09
2018-08-12T12:40:29.201Z,17.98
2018-08-12T12:41:39.452Z,18.18
2018-08-12T12:42:49.302Z,18.18
2018-08-12T12:43:59.857Z,17.98
2018-08-12T12:45:10.095Z,18.18
2018-08-12T12:46:20.371Z,18.56
2018-08-12T12:47:30.593Z,18.27
2018-08-12T12:48:40.875Z,18.36
2018-08-12T12:49:51.162Z,18.65
2018-08-12T12:51:01.405Z,19.14
2018-08-12T12:52:11.638Z,19.14
2018-08-12T12:53:21.902Z,19.24
2018-08-12T12:54:32.317Z,18.85
2018-08-12T12:55:42.636Z,19.05
2018-08-12T12:56:53.089Z,19.24
2018-08-12T12:58:03.333Z,19.15
2018-08-12T12:59:14.042Z,18.75
2018-08-12T13:00:25.525Z,18.64
2018-08-12T13:01:36.515Z,18.93
2018-08-12T13:02:46.820Z,19.31
2018-08-12T13:04:00.752Z,19.02
2018-08-12T13:05:11.200Z,18.91
2018-08-12T13:06:21.131Z,19.02
2018-08-12T13:07:31.335Z,19.02
2018-08-12T13:08:41.543Z,19.21
2018-08-12T13:09:51.784Z,19.11
2018-08-12T13:11:02.151Z,19.89
2018-08-12T13:12:12.412Z,19.31
2018-08-12T13:13:22.662Z,19.89
2018-08-12T13:14:32.888Z,19.7
2018-08-12T13:15:43.338Z,19.6
2018-08-12T13:16:53.577Z,19.7
2018-08-12T13:18:03.838Z,19.51
2018-08-12T13:19:14.234Z,19.8
2018-08-12T13:20:24.515Z,20
2018-08-12T13:21:34.858Z,19.41
2018-08-12T13:22:45.121Z,19.31
2018-08-12T13:23:55.428Z,20
2018-08-12T13:25:05.894Z,19.21
2018-08-12T13:26:16.529Z,19.21
2018-08-12T13:27:26.804Z,19.31
2018-08-12T13:28:37.097Z,19.02
2018-08-12T13:29:47.409Z,18.92
2018-08-12T13:30:57.692Z,18.82
2018-08-12T13:32:07.987Z,18.82
2018-08-12T13:33:18.379Z,18.62
2018-08-12T13:34:28.626Z,18.72
2018-08-12T13:35:38.901Z,19.11
2018-08-12T13:36:49.232Z,19.11
2018-08-12T13:37:59.525Z,19.39
2018-08-12T13:39:09.850Z,19.78
2018-08-12T13:40:20.104Z,19.39
2018-08-12T13:41:30.466Z,19.2
2018-08-12T13:42:40.764Z,19.68
2018-08-12T13:43:51.075Z,19.88
2018-08-12T13:45:01.380Z,20.06
2018-08-12T13:46:12.676Z,19.96
2018-08-12T13:47:23.091Z,20.06
2018-08-12T13:48:33.448Z,20.16
2018-08-12T13:49:43.661Z,20.16
2018-08-12T13:50:54.184Z,20.45
2018-08-12T13:52:04.534Z,20.36
2018-08-12T13:53:15.260Z,20.06
2018-08-12T13:54:25.764Z,20.45
2018-08-12T13:55:36.053Z,20.84
2018-08-12T13:56:46.311Z,20.84
2018-08-12T13:57:56.535Z,20.55
2018-08-12T13:59:06.766Z,20.75
2018-08-12T14:00:17.016Z,20.47
2018-08-12T14:01:27.268Z,20.75
2018-08-12T14:02:37.647Z,20.65
2018-08-12T14:03:47.711Z,20.06
2018-08-12T14:04:57.975Z,19.87
2018-08-12T14:06:08.267Z,19.87
2018-08-12T14:07:18.462Z,19.58
2018-08-12T14:08:28.773Z,19.78
2018-08-12T14:09:39.052Z,19.68
2018-08-12T14:10:49.547Z,19.78
2018-08-12T14:12:00.066Z,19.87
2018-08-12T14:13:10.452Z,19.68
2018-08-12T14:14:20.679Z,19.87
2018-08-12T14:15:31.119Z,19.29
2018-08-12T14:16:41.125Z,19.96
2018-08-12T14:17:51.110Z,20.65
2018-08-12T14:19:01.360Z,20.36
2018-08-12T14:20:11.711Z,19.19
2018-08-12T14:21:22.452Z,19.58
2018-08-12T14:22:33.006Z,19.88
2018-08-12T14:23:44.256Z,19.87
2018-08-12T14:24:54.525Z,19.48
2018-08-12T14:26:04.755Z,19.68
2018-08-12T14:27:14.996Z,19.19
2018-08-12T14:28:25.245Z,18.99
2018-08-12T14:29:35.969Z,18.99
2018-08-12T14:30:46.185Z,18.99
2018-08-12T14:31:56.515Z,19.29
2018-08-12T14:33:06.789Z,18.7
2018-08-12T14:34:17.133Z,18.98
2018-08-12T14:35:27.407Z,18.98
2018-08-12T14:36:37.649Z,18.98
2018-08-12T14:37:48.378Z,19.56
2018-08-12T14:38:58.919Z,19.17
2018-08-12T14:40:09.386Z,19.75
2018-08-12T14:41:19.748Z,19.75
2018-08-12T14:42:29.678Z,19.56
2018-08-12T14:43:40.140Z,19.65
2018-08-12T14:44:51.103Z,19.27
2018-08-12T14:46:01.093Z,19.37
2018-08-12T14:47:11.327Z,18.78
2018-08-12T14:48:21.363Z,19.65
2018-08-12T14:49:32.336Z,19.95
2018-08-12T14:50:42.612Z,19.67
2018-08-12T14:51:52.811Z,19.18
2018-08-12T14:53:03.033Z,19.37
2018-08-12T14:54:13.234Z,19.18
2018-08-12T14:55:23.438Z,18.98
2018-08-12T14:56:33.698Z,18.98
2018-08-12T14:57:43.979Z,19.37
2018-08-12T14:58:54.804Z,18.88
2018-08-12T15:00:05.042Z,19.08
2018-08-12T15:01:15.291Z,19.18
2018-08-12T15:02:25.522Z,18.98
2018-08-12T15:03:35.715Z,19.96
2018-08-12T15:04:45.931Z,19.47
2018-08-12T15:05:56.141Z,19.27
2018-08-12T15:07:06.579Z,19.37
2018-08-12T15:08:16.770Z,19.27
2018-08-12T15:09:27.040Z,18.98